Allen, Kansas
Current Conditions -  °F | °C
As of 1:53 AM on Friday 31 Oct 2014 (Local Time) from KEMP Reporting Station
Clear Clear  
Wind Chill:   Ceiling: Unl
Heat Index:   Visibility: 10mi
Dew Point:   Wind: 16mph
Humidity: 80%   Direction: 350°N
Pressure: 30.29"   Gusts: 23mph
Location:  38.66°N, 96.17°W
Report Text: KEMP 310653Z AUTO 35014G20KT 10SM CLR 07/04 A3029 RMK AO2 SLP259 T00720039
Loading
Personal Weather Stations






























Interactive Weather Map
Tropical Storm Tracking
New forecast layout! Learn more

10-Day Weather Forecast

Advertisements
Track Severe Weather on mobile